Breitung, Minnesota
Current Conditions -  °F | °C
As of 6:34 PM on Saturday 20 Dec 2014 (Local Time) from KCQM Reporting Station
Haze Haze  
Wind Chill: 22°   Ceiling: 700
Heat Index: 28°   Visibility: 4mi
Dew Point: 27°   Wind: 6mph
Humidity: 93%   Direction: 170°S
Pressure: 30.02"   Gusts: NA
Location:  47.7992°N, 92.3042°W
Report Text: KCQM 210034Z AUTO 17005KT 4SM BR OVC007 M02/M03 A3002 RMK AO2
Loading
Personal Weather Stations






























Interactive Weather Map New forecast layout! Learn more

10-Day Weather Forecast

Advertisements
Track Severe Weather on mobile